Time;durP1;ratioP1;P1;durP2;ratioP2;P2;SDS_P1;SDS_P2;PMS_P1;PMS_P2;Temp;Humidity;BMP_temperature;BMP_pressure;BME280_temperature;BME280_humidity;BME280_pressure;Samples;Min_cycle;Max_cycle;Signal;HPM_P1;HPM_P2
2021/08/04 00:00:29;;;;;;;4.00;1.70;;;;;;;12.95;92.85;96445.78;3557543;40;20847;-75
2021/08/04 00:02:57;;;;;;;4.90;1.70;;;;;;;12.94;92.06;96437.06;3560063;40;20451;-71
2021/08/04 00:05:25;;;;;;;2.47;1.70;;;;;;;12.91;92.27;96447.00;3557834;40;20551;-73
2021/08/04 00:07:53;;;;;;;1.90;1.50;;;;;;;12.92;91.67;96444.25;3557248;40;20457;-73
2021/08/04 00:10:23;;;;;;;2.80;1.90;;;;;;;12.93;91.17;96439.81;3552740;40;20797;-72
2021/08/04 00:12:51;;;;;;;2.63;1.60;;;;;;;12.92;91.28;96435.53;3560492;40;20666;-73
2021/08/04 00:15:19;;;;;;;2.17;1.80;;;;;;;12.92;92.08;96439.00;3559253;40;20519;-73
2021/08/04 00:17:48;;;;;;;8.00;1.63;;;;;;;12.92;92.09;96432.91;3558066;40;20830;-71
2021/08/04 00:20:16;;;;;;;2.77;2.20;;;;;;;12.91;92.34;96431.22;3562010;40;20867;-72
2021/08/04 00:22:45;;;;;;;7.10;2.40;;;;;;;12.88;92.01;96436.72;3560365;40;20554;-70
2021/08/04 00:25:13;;;;;;;3.23;1.60;;;;;;;12.89;92.29;96426.09;3560334;40;20470;-71
2021/08/04 00:27:42;;;;;;;1.90;1.50;;;;;;;12.86;92.63;96428.97;3560200;40;20483;-71
2021/08/04 00:30:11;;;;;;;4.60;1.90;;;;;;;12.86;92.59;96432.44;3559513;40;20486;-71
2021/08/04 00:32:39;;;;;;;2.47;1.80;;;;;;;12.80;93.07;96427.66;3561092;40;20964;-72
2021/08/04 00:35:08;;;;;;;3.97;1.70;;;;;;;12.75;92.74;96442.13;3561502;40;20481;-71
2021/08/04 00:37:36;;;;;;;2.07;1.60;;;;;;;12.71;92.68;96431.03;3559311;40;20468;-71
2021/08/04 00:40:06;;;;;;;4.30;2.23;;;;;;;12.68;93.21;96444.41;3565672;40;20688;-71
2021/08/04 00:42:34;;;;;;;5.07;1.77;;;;;;;12.74;92.36;96435.19;3557631;40;21308;-71
2021/08/04 00:45:04;;;;;;;1.90;1.60;;;;;;;12.71;91.46;96438.91;3558795;40;20765;-71
2021/08/04 00:47:32;;;;;;;12.70;2.07;;;;;;;12.79;91.24;96439.13;3559902;40;20584;-72
2021/08/04 00:50:01;;;;;;;2.73;2.00;;;;;;;12.77;91.35;96434.97;3549969;40;20916;-71
2021/08/04 00:52:29;;;;;;;3.37;2.13;;;;;;;12.72;90.88;96430.09;3558361;40;20525;-72
2021/08/04 00:54:57;;;;;;;5.37;1.87;;;;;;;12.71;91.70;96428.41;3560915;40;20794;-71
2021/08/04 00:57:25;;;;;;;1.93;1.57;;;;;;;12.77;91.48;96430.53;3563924;40;20462;-71
2021/08/04 00:59:54;;;;;;;3.10;1.67;;;;;;;12.73;91.60;96428.28;3559055;40;21168;-71
2021/08/04 01:02:29;;;;;;;3.67;1.60;;;;;;;12.74;92.03;96430.78;3561628;40;20594;-71
2021/08/04 01:05:03;;;;;;;5.83;1.70;;;;;;;12.75;91.55;96423.75;3560509;40;20495;-70
2021/08/04 01:07:34;;;;;;;1.90;1.70;;;;;;;12.70;92.34;96429.38;3560893;40;20473;-71
2021/08/04 01:10:09;;;;;;;3.07;2.33;;;;;;;12.67;92.18;96421.72;3557918;40;20837;-70
2021/08/04 01:12:43;;;;;;;2.77;1.77;;;;;;;12.69;92.14;96417.19;3571395;40;20512;-71
2021/08/04 01:15:13;;;;;;;4.00;1.67;;;;;;;12.68;91.33;96412.03;3568857;40;20572;-70
2021/08/04 01:17:48;;;;;;;3.53;1.60;;;;;;;12.61;91.74;96415.16;3567973;40;20572;-71
2021/08/04 01:20:21;;;;;;;2.27;1.90;;;;;;;12.63;91.81;96412.41;3570668;40;20859;-71
2021/08/04 01:23:00;;;;;;;2.33;1.70;;;;;;;12.59;91.42;96406.56;3571362;40;20797;-71
2021/08/04 01:25:33;;;;;;;2.17;1.73;;;;;;;12.66;91.01;96415.66;3569141;40;20830;-72
2021/08/04 01:28:20;;;;;;;4.30;2.20;;;;;;;12.64;91.36;96414.94;3568008;40;20572;-71
2021/08/04 01:30:51;;;;;;;3.63;1.90;;;;;;;12.66;91.80;96418.28;3568622;40;20489;-71
2021/08/04 01:33:20;;;;;;;8.20;2.00;;;;;;;12.62;91.17;96427.34;3559601;39;20851;-72
2021/08/04 01:35:49;;;;;;;2.17;1.50;;;;;;;12.61;91.28;96430.09;3569938;40;20477;-72
2021/08/04 01:38:20;;;;;;;1.87;1.30;;;;;;;12.63;91.55;96430.81;3567582;40;20539;-71
2021/08/04 01:40:50;;;;;;;5.10;1.90;;;;;;;12.60;91.45;96420.53;3567864;40;20559;-70
2021/08/04 01:43:20;;;;;;;3.00;1.60;;;;;;;12.59;91.57;96432.84;3568720;40;20485;-71
2021/08/04 01:45:49;;;;;;;4.50;1.90;;;;;;;12.55;92.15;96427.97;3567428;40;20701;-71
2021/08/04 01:48:18;;;;;;;5.00;1.93;;;;;;;12.50;92.24;96428.31;3568912;39;21102;-72
2021/08/04 01:50:47;;;;;;;5.80;2.37;;;;;;;12.46;91.98;96422.47;3568920;40;20676;-71
2021/08/04 01:53:16;;;;;;;2.50;1.80;;;;;;;12.54;92.18;96423.66;3567535;39;20462;-71
2021/08/04 01:55:44;;;;;;;7.00;1.70;;;;;;;12.50;91.64;96424.84;3567595;40;20442;-71
2021/08/04 01:58:12;;;;;;;3.87;2.17;;;;;;;12.53;91.98;96420.19;3570330;39;20558;-71
2021/08/04 02:00:42;;;;;;;2.53;1.70;;;;;;;12.54;91.88;96416.59;3572619;40;20492;-72
2021/08/04 02:03:10;;;;;;;2.40;1.93;;;;;;;12.57;91.89;96412.91;3570341;39;20467;-71
2021/08/04 02:05:38;;;;;;;2.23;1.60;;;;;;;12.52;91.28;96420.31;3569647;40;20830;-71
2021/08/04 02:08:17;;;;;;;4.57;2.13;;;;;;;12.52;91.50;96420.31;3569556;40;20529;-73
2021/08/04 02:10:51;;;;;;;3.00;2.00;;;;;;;12.51;91.49;96418.66;3571490;40;20450;-72
2021/08/04 02:13:28;;;;;;;4.47;2.30;;;;;;;12.48;91.79;96413.63;3560272;39;20814;-71
2021/08/04 02:16:25;;;;;;;3.17;1.90;;;;;;;12.57;91.32;96420.78;3569717;40;20447;-73
2021/08/04 02:19:02;;;;;;;2.37;2.00;;;;;;;12.56;91.33;96419.94;3567687;40;21221;-72
2021/08/04 02:21:32;;;;;;;8.30;1.83;;;;;;;12.57;91.23;96419.00;3571554;40;20435;-71
2021/08/04 02:24:02;;;;;;;5.30;1.83;;;;;;;12.57;90.12;96410.28;3569702;39;20546;-72
2021/08/04 02:26:31;;;;;;;3.67;1.53;;;;;;;12.61;90.87;96415.16;3570147;39;20845;-73
2021/08/04 02:29:00;;;;;;;9.47;1.97;;;;;;;12.64;90.93;96409.69;3580547;39;20899;-73
2021/08/04 02:31:30;;;;;;;6.70;2.20;;;;;;;12.56;91.55;96417.31;3580198;39;20448;-71
2021/08/04 02:34:02;;;;;;;4.80;1.90;;;;;;;12.43;91.40;96414.00;3578279;39;20564;-72
2021/08/04 02:36:29;;;;;;;14.53;1.50;;;;;;;12.41;89.88;96408.03;3581340;39;20867;-71
2021/08/04 02:39:01;;;;;;;4.77;1.80;;;;;;;12.32;89.86;96411.38;3580905;39;20457;-70
2021/08/04 02:41:30;;;;;;;2.37;1.60;;;;;;;12.36;89.92;96404.94;3578912;39;20445;-71
2021/08/04 02:43:58;;;;;;;4.07;1.57;;;;;;;12.27;90.62;96398.63;3567690;40;20529;-71
2021/08/04 02:46:29;;;;;;;2.40;1.50;;;;;;;12.18;90.82;96397.56;3579866;39;20447;-70
2021/08/04 02:48:59;;;;;;;5.13;2.00;;;;;;;12.18;90.86;96389.69;3579584;39;20817;-71
2021/08/04 02:51:30;;;;;;;5.53;1.97;;;;;;;12.14;91.05;96390.06;3582278;39;20440;-71
2021/08/04 02:54:00;;;;;;;7.20;1.90;;;;;;;12.12;91.43;96398.03;3568528;39;20542;-71
2021/08/04 02:56:28;;;;;;;4.47;1.50;;;;;;;12.16;90.34;96402.09;3577845;39;20773;-72
2021/08/04 02:58:56;;;;;;;3.83;2.10;;;;;;;12.12;90.90;96397.22;3579433;39;20812;-70
2021/08/04 03:01:24;;;;;;;3.67;2.30;;;;;;;12.21;90.58;96391.22;3581712;39;20515;-72
2021/08/04 03:03:52;;;;;;;4.33;1.77;;;;;;;12.25;90.25;96390.03;3582221;39;20725;-71
2021/08/04 03:06:22;;;;;;;4.37;2.30;;;;;;;12.25;89.30;96387.38;3577967;39;20896;-70
2021/08/04 03:08:50;;;;;;;2.50;1.60;;;;;;;12.20;89.73;96394.81;3579527;39;20490;-69
2021/08/04 03:11:17;;;;;;;2.00;1.47;;;;;;;12.22;89.77;96392.91;3580436;39;20535;-75
2021/08/04 03:13:45;;;;;;;5.73;1.83;;;;;;;12.31;89.35;96386.94;3582657;39;20448;-72
2021/08/04 03:16:13;;;;;;;11.53;2.67;;;;;;;12.29;89.13;96394.09;3581546;39;20923;-71
2021/08/04 03:18:41;;;;;;;5.77;1.70;;;;;;;12.30;87.90;96395.75;3580519;39;20965;-71
2021/08/04 03:21:09;;;;;;;2.50;1.87;;;;;;;12.22;88.15;96393.72;3580436;39;20451;-71
2021/08/04 03:23:39;;;;;;;10.43;2.10;;;;;;;12.23;89.17;96400.66;3579683;39;20562;-72
2021/08/04 03:26:07;;;;;;;2.00;1.63;;;;;;;12.18;88.30;96389.69;3581908;39;20658;-72
2021/08/04 03:28:35;;;;;;;2.00;1.50;;;;;;;12.18;88.82;96397.56;3583546;39;20464;-71
2021/08/04 03:31:03;;;;;;;6.47;2.20;;;;;;;12.26;88.33;96399.56;3580037;39;20441;-71
2021/08/04 03:33:31;;;;;;;8.93;2.23;;;;;;;12.00;89.86;96402.44;3570766;40;20461;-70
2021/08/04 03:35:59;;;;;;;6.07;2.10;;;;;;;11.87;90.61;96401.69;3580307;39;20435;-71
2021/08/04 03:38:27;;;;;;;9.20;1.97;;;;;;;11.92;90.60;96393.47;3581970;39;21122;-70
2021/08/04 03:40:56;;;;;;;3.20;2.00;;;;;;;11.91;89.25;96395.28;3579497;39;20711;-71
2021/08/04 03:43:24;;;;;;;4.90;2.20;;;;;;;11.93;89.63;96401.25;3578944;39;20854;-72
2021/08/04 03:45:52;;;;;;;5.93;1.87;;;;;;;11.99;89.69;96399.94;3579680;39;20540;-72
2021/08/04 03:48:20;;;;;;;3.93;1.87;;;;;;;12.06;90.11;96393.28;3578282;39;20776;-72
2021/08/04 03:50:48;;;;;;;2.93;1.77;;;;;;;11.96;90.66;96376.56;3580987;39;20429;-72
2021/08/04 03:53:16;;;;;;;3.73;2.00;;;;;;;12.05;90.56;96400.31;3577927;39;20836;-70
2021/08/04 03:55:44;;;;;;;11.50;2.70;;;;;;;12.13;89.31;96404.13;3577180;39;20811;-72
2021/08/04 03:58:13;;;;;;;7.80;2.10;;;;;;;12.08;89.13;96391.34;3577975;39;20450;-72
2021/08/04 04:00:42;;;;;;;4.00;2.10;;;;;;;11.96;89.86;96398.41;3577176;39;20791;-70
2021/08/04 04:03:10;;;;;;;3.23;2.30;;;;;;;11.94;90.58;96397.69;3578466;39;20852;-71
2021/08/04 04:05:39;;;;;;;4.33;2.27;;;;;;;11.98;91.14;96406.16;3579010;39;20496;-72
2021/08/04 04:08:07;;;;;;;10.57;2.40;;;;;;;11.90;91.42;96393.63;3579140;39;20852;-70
2021/08/04 04:10:35;;;;;;;11.00;2.37;;;;;;;12.00;91.43;96394.56;3578724;39;20599;-73
2021/08/04 04:13:03;;;;;;;3.17;2.03;;;;;;;12.07;91.40;96395.78;3568110;40;20937;-73
2021/08/04 04:15:32;;;;;;;4.50;2.07;;;;;;;11.99;90.27;96395.53;3568933;40;20844;-74
2021/08/04 04:18:00;;;;;;;3.03;1.60;;;;;;;11.93;91.48;96401.25;3577590;39;20447;-73
2021/08/04 04:20:28;;;;;;;3.27;1.60;;;;;;;12.14;91.02;96397.94;3579152;39;20542;-71
2021/08/04 04:22:56;;;;;;;6.90;2.50;;;;;;;12.17;90.49;96398.53;3581592;39;20458;-71
2021/08/04 04:25:24;;;;;;;3.90;2.70;;;;;;;12.16;90.14;96394.22;3581543;39;20905;-72
2021/08/04 04:27:51;;;;;;;2.57;1.80;;;;;;;12.20;90.56;96405.31;3580733;39;20505;-72
2021/08/04 04:30:19;;;;;;;8.30;2.30;;;;;;;12.27;90.56;96401.25;3579629;39;20857;-71
2021/08/04 04:32:49;;;;;;;5.63;1.97;;;;;;;12.28;90.79;96400.28;3576789;39;20467;-74
2021/08/04 04:35:18;;;;;;;3.80;2.20;;;;;;;12.30;90.57;96406.25;3589243;39;21215;-73
2021/08/04 04:38:14;;;;;;;4.33;2.30;;;;;;;12.32;91.10;96401.72;3598852;39;20570;-72
2021/08/04 04:40:42;;;;;;;8.73;1.70;;;;;;;12.34;90.44;96414.72;3566683;40;20506;-71
2021/08/04 04:43:10;;;;;;;7.00;2.20;;;;;;;12.41;90.99;96411.50;3577440;39;20845;-74
2021/08/04 04:45:38;;;;;;;4.23;1.93;;;;;;;12.49;91.11;96404.81;3577324;39;20440;-73
2021/08/04 04:48:08;;;;;;;2.90;2.20;;;;;;;12.51;91.35;96408.16;3573226;40;20480;-73
2021/08/04 04:50:36;;;;;;;4.27;2.03;;;;;;;12.57;91.11;96402.41;3579714;39;20560;-74
2021/08/04 04:53:04;;;;;;;5.83;2.77;;;;;;;12.66;90.84;96404.28;3583507;39;20764;-73
2021/08/04 04:55:32;;;;;;;3.20;2.00;;;;;;;12.69;90.23;96404.03;3580095;39;20466;-73
2021/08/04 04:58:03;;;;;;;2.80;2.30;;;;;;;12.67;89.42;96405.97;3580968;39;20953;-73
2021/08/04 05:00:31;;;;;;;7.03;2.10;;;;;;;12.75;89.95;96407.97;3578282;39;20656;-72
2021/08/04 05:03:00;;;;;;;5.50;2.10;;;;;;;12.78;90.51;96411.19;3581081;39;20961;-74
2021/08/04 05:05:29;;;;;;;4.90;2.20;;;;;;;12.73;90.08;96402.84;3579118;39;20486;-72
2021/08/04 05:07:57;;;;;;;10.13;2.07;;;;;;;12.82;89.38;96410.00;3568736;39;20489;-74
2021/08/04 05:10:25;;;;;;;4.13;2.10;;;;;;;12.83;89.03;96416.91;3578128;39;20579;-72
2021/08/04 05:12:53;;;;;;;8.87;2.50;;;;;;;12.75;90.02;96421.94;3580567;39;20448;-75
2021/08/04 05:15:21;;;;;;;4.40;2.00;;;;;;;12.49;91.02;96417.94;3582675;39;20914;-73
2021/08/04 05:17:49;;;;;;;5.03;2.10;;;;;;;12.82;89.79;96420.50;3582822;39;20869;-74
2021/08/04 05:20:17;;;;;;;2.70;1.70;;;;;;;12.48;87.87;96419.72;3576784;39;20773;-73
2021/08/04 05:22:47;;;;;;;5.00;2.00;;;;;;;12.78;86.13;96423.47;3578238;39;20523;-73
2021/08/04 05:25:15;;;;;;;13.90;1.87;;;;;;;12.86;84.25;96423.72;3575977;39;20467;-74
2021/08/04 05:27:47;;;;;;;5.13;2.13;;;;;;;12.97;87.05;96428.09;3577204;39;20453;-71
2021/08/04 05:30:15;;;;;;;5.10;1.60;;;;;;;12.50;84.88;96427.47;3580973;39;20468;-71
2021/08/04 05:32:43;;;;;;;2.10;1.63;;;;;;;12.63;86.23;96417.69;3578040;39;20514;-75
2021/08/04 05:35:13;;;;;;;5.13;1.80;;;;;;;12.72;86.59;96426.59;3567546;39;20840;-73
2021/08/04 05:37:41;;;;;;;4.07;1.77;;;;;;;13.09;84.28;96429.72;3579251;39;20524;-71
2021/08/04 05:40:16;;;;;;;4.73;1.50;;;;;;;13.34;82.68;96427.75;3578348;39;20884;-72
2021/08/04 05:42:44;;;;;;;2.90;2.07;;;;;;;13.08;84.25;96424.59;3576894;40;20821;-73
2021/08/04 05:45:12;;;;;;;2.87;1.60;;;;;;;13.30;82.55;96421.91;3575880;39;20820;-73
2021/08/04 05:47:41;;;;;;;3.93;2.13;;;;;;;12.97;84.23;96425.47;3577062;39;20547;-73
2021/08/04 05:50:09;;;;;;;4.33;1.87;;;;;;;13.23;83.18;96421.56;3578101;39;20771;-74
2021/08/04 05:52:37;;;;;;;3.03;1.97;;;;;;;13.43;82.28;96424.38;3577622;39;21077;-74
2021/08/04 05:55:07;;;;;;;5.50;2.30;;;;;;;13.64;82.66;96416.44;3579478;39;20921;-72
2021/08/04 05:57:38;;;;;;;3.70;2.50;;;;;;;13.58;83.67;96414.34;3579057;39;20969;-72
2021/08/04 06:00:07;;;;;;;5.10;2.47;;;;;;;13.65;83.13;96413.69;3565096;39;20482;-72
2021/08/04 06:02:35;;;;;;;3.20;1.80;;;;;;;13.71;82.51;96414.16;3571278;39;21116;-72
2021/08/04 06:05:05;;;;;;;3.13;1.93;;;;;;;13.71;79.73;96415.00;3586102;39;20455;-70
2021/08/04 06:07:33;;;;;;;4.93;2.10;;;;;;;14.33;78.29;96417.63;3582404;39;20460;-71
2021/08/04 06:10:01;;;;;;;3.87;2.17;;;;;;;14.10;79.83;96412.56;3576521;39;20860;-71
2021/08/04 06:12:29;;;;;;;2.53;1.70;;;;;;;13.92;80.15;96414.97;3577883;39;20452;-72
2021/08/04 06:14:58;;;;;;;3.17;2.07;;;;;;;14.51;77.00;96417.84;3577570;39;20471;-74
2021/08/04 06:17:27;;;;;;;2.00;1.70;;;;;;;15.25;75.12;96408.66;3577821;40;20448;-70
2021/08/04 06:19:58;;;;;;;4.93;1.60;;;;;;;15.33;75.55;96416.75;3580198;39;20765;-72
2021/08/04 06:22:30;;;;;;;2.20;1.30;;;;;;;15.02;73.65;96406.31;3578472;39;20761;-73
2021/08/04 06:24:58;;;;;;;1.97;1.60;;;;;;;15.51;72.72;96406.31;3578216;39;20779;-72
2021/08/04 06:27:26;;;;;;;3.67;1.73;;;;;;;15.12;71.88;96415.06;3570009;40;20491;-71
2021/08/04 06:29:54;;;;;;;3.00;2.03;;;;;;;15.13;72.50;96427.28;3581508;39;20868;-72
2021/08/04 06:32:24;;;;;;;2.40;1.40;;;;;;;14.69;74.16;96429.44;3570325;40;20950;-70
2021/08/04 06:34:52;;;;;;;2.20;1.57;;;;;;;14.75;71.42;96423.63;3563288;39;20436;-74
2021/08/04 06:37:19;;;;;;;2.57;1.93;;;;;;;15.19;72.72;96432.00;3577639;39;20817;-73
2021/08/04 06:39:47;;;;;;;3.10;1.80;;;;;;;15.29;69.76;96436.44;3568124;40;20772;-71
2021/08/04 06:42:19;;;;;;;4.80;1.73;;;;;;;15.78;68.50;96438.13;3580471;39;20509;-71
2021/08/04 06:44:47;;;;;;;2.80;1.70;;;;;;;16.18;66.90;96438.84;3580604;39;20456;-71
2021/08/04 06:47:15;;;;;;;1.93;1.30;;;;;;;16.48;67.97;96431.63;3570957;39;20816;-73
2021/08/04 06:49:44;;;;;;;2.23;1.30;;;;;;;16.35;66.02;96437.25;3581594;39;20963;-73
2021/08/04 06:52:12;;;;;;;2.53;2.10;;;;;;;16.34;68.29;96433.78;3578977;39;20464;-71
2021/08/04 06:54:40;;;;;;;6.00;2.00;;;;;;;15.81;67.03;96423.78;3582255;39;20571;-74
2021/08/04 06:57:08;;;;;;;47.57;27.57;;;;;;;15.93;68.67;96438.47;3572326;40;20842;-72
2021/08/04 06:59:35;;;;;;;66.37;38.40;;;;;;;15.72;68.71;96441.28;3579177;39;20542;-71
2021/08/04 07:02:04;;;;;;;6.27;2.40;;;;;;;15.72;67.67;96438.66;3580465;39;20754;-72
2021/08/04 07:04:32;;;;;;;2.83;1.73;;;;;;;16.42;64.77;96435.69;3578425;39;20468;-70
2021/08/04 07:07:04;;;;;;;4.87;1.93;;;;;;;16.36;64.66;96439.75;3582885;39;20624;-72
2021/08/04 07:09:34;;;;;;;3.07;1.67;;;;;;;17.56;64.20;96437.91;3578523;39;21181;-71
2021/08/04 07:12:03;;;;;;;1.73;1.30;;;;;;;16.03;65.79;96446.38;3579772;39;20896;-72
2021/08/04 07:14:30;;;;;;;2.00;1.50;;;;;;;15.72;65.89;96445.72;3577944;39;20465;-70
2021/08/04 07:16:58;;;;;;;1.90;1.40;;;;;;;16.29;64.05;96449.25;3579554;39;20479;-72
2021/08/04 07:19:26;;;;;;;2.40;1.57;;;;;;;15.94;63.91;96450.72;3583180;39;20554;-71
2021/08/04 07:21:54;;;;;;;3.30;1.50;;;;;;;16.02;65.41;96442.91;3583766;39;20771;-71
2021/08/04 07:24:23;;;;;;;2.43;1.60;;;;;;;15.93;65.70;96448.22;3579678;39;20456;-73
2021/08/04 07:26:52;;;;;;;2.07;1.40;;;;;;;16.21;63.97;96446.50;3580342;39;20565;-71
2021/08/04 07:29:19;;;;;;;3.50;1.70;;;;;;;16.85;61.96;96438.72;3581255;39;20558;-71
2021/08/04 07:31:47;;;;;;;3.30;2.40;;;;;;;17.08;63.44;96439.13;3580375;39;20458;-71
2021/08/04 07:34:21;;;;;;;4.93;2.87;;;;;;;17.69;58.88;96437.53;3580206;39;20483;-71
2021/08/04 07:36:49;;;;;;;3.77;2.37;;;;;;;17.82;59.54;96437.97;3581631;39;20941;-71
2021/08/04 07:39:18;;;;;;;2.30;1.60;;;;;;;18.35;60.22;96444.94;3577591;39;20496;-72
2021/08/04 07:41:48;;;;;;;1.57;1.20;;;;;;;18.47;59.06;96431.41;3582848;39;20460;-72
2021/08/04 07:44:16;;;;;;;3.50;1.77;;;;;;;17.72;61.54;96443.34;3583691;39;20514;-72
2021/08/04 07:46:53;;;;;;;7.53;2.00;;;;;;;17.71;61.57;96440.84;3583952;39;20445;-72
2021/08/04 07:49:21;;;;;;;2.93;1.53;;;;;;;17.53;60.57;96439.03;3579663;39;21111;-71
2021/08/04 07:51:50;;;;;;;3.47;1.63;;;;;;;17.86;62.98;96439.34;3571603;40;20747;-72
2021/08/04 07:54:18;;;;;;;3.60;2.00;;;;;;;18.21;60.10;96437.59;3582067;39;20844;-72
2021/08/04 07:56:48;;;;;;;3.60;1.70;;;;;;;18.04;61.43;96430.50;3581514;39;20483;-72
2021/08/04 07:59:16;;;;;;;3.47;1.50;;;;;;;18.10;58.06;96424.59;3579857;39;20719;-72
2021/08/04 08:01:44;;;;;;;3.00;2.10;;;;;;;18.41;58.95;96429.41;3580312;39;20449;-72
2021/08/04 08:04:12;;;;;;;4.13;2.10;;;;;;;18.21;61.75;96420.81;3579546;39;20454;-71
2021/08/04 08:06:40;;;;;;;9.13;1.90;;;;;;;18.47;58.79;96423.47;3583194;39;20466;-72
2021/08/04 08:09:08;;;;;;;3.37;1.50;;;;;;;18.89;57.96;96410.19;3574019;39;20844;-70
2021/08/04 08:11:37;;;;;;;3.33;1.40;;;;;;;18.47;59.42;96411.03;3583902;39;20448;-72
2021/08/04 08:14:07;;;;;;;5.43;1.50;;;;;;;18.65;59.36;96408.28;3580618;39;20456;-72
2021/08/04 08:16:35;;;;;;;2.23;1.27;;;;;;;18.79;58.67;96422.75;3576598;39;20488;-73
2021/08/04 08:19:03;;;;;;;6.60;2.30;;;;;;;18.06;59.25;96433.84;3572418;40;20923;-73
2021/08/04 08:21:31;;;;;;;4.40;1.80;;;;;;;17.80;61.39;96434.63;3581581;39;20456;-75
2021/08/04 08:23:59;;;;;;;2.87;1.87;;;;;;;18.16;60.60;96438.03;3583107;39;21120;-73
2021/08/04 08:26:30;;;;;;;2.57;1.87;;;;;;;18.04;61.09;96425.22;3580423;39;20695;-72
2021/08/04 08:28:58;;;;;;;4.47;1.60;;;;;;;18.01;61.92;96433.47;3578010;39;20469;-74
2021/08/04 08:31:27;;;;;;;17.10;10.00;;;;;;;18.22;60.16;96439.22;3581225;39;20470;-73
2021/08/04 08:33:59;;;;;;;4.30;2.70;;;;;;;18.23;60.02;96442.69;3582959;39;20472;-72
2021/08/04 08:36:28;;;;;;;4.30;1.77;;;;;;;17.93;59.84;96445.66;3579215;39;20437;-71
2021/08/04 08:38:56;;;;;;;2.50;1.90;;;;;;;18.08;61.95;96448.59;3578067;39;20853;-69
2021/08/04 08:41:24;;;;;;;5.70;1.70;;;;;;;18.05;59.21;96443.59;3578889;39;20912;-72
2021/08/04 08:43:54;;;;;;;4.83;1.70;;;;;;;18.08;61.33;96431.88;3583738;39;20699;-70
2021/08/04 08:46:28;;;;;;;2.50;1.63;;;;;;;17.50;61.30;96441.16;3581250;40;20744;-71
2021/08/04 08:49:04;;;;;;;2.27;1.40;;;;;;;17.86;62.13;96428.75;3578862;40;20714;-72
2021/08/04 08:51:32;;;;;;;4.63;2.03;;;;;;;17.58;61.61;96436.78;3581561;39;20467;-71
2021/08/04 08:54:00;;;;;;;7.13;1.40;;;;;;;18.00;62.21;96431.81;3578435;39;21018;-73
2021/08/04 08:56:29;;;;;;;3.93;1.77;;;;;;;17.82;63.83;96427.38;3580036;39;20751;-73
2021/08/04 08:58:58;;;;;;;4.40;1.70;;;;;;;18.49;61.62;96424.13;3570601;40;20485;-72
2021/08/04 09:01:35;;;;;;;5.00;1.83;;;;;;;18.56;60.55;96414.53;3580022;39;20838;-72
2021/08/04 09:04:07;;;;;;;2.27;1.50;;;;;;;18.54;60.08;96413.84;3581281;39;20453;-73
2021/08/04 09:06:47;;;;;;;2.50;1.40;;;;;;;18.92;56.31;96409.88;3572423;39;20468;-70
2021/08/04 09:09:21;;;;;;;3.30;1.87;;;;;;;18.97;56.55;96409.38;3578096;39;20845;-73
2021/08/04 09:11:51;;;;;;;4.83;2.17;;;;;;;19.45;55.38;96413.13;3581233;39;20476;-72
2021/08/04 09:14:26;;;;;;;3.33;1.87;;;;;;;19.75;57.05;96401.00;3579823;39;20449;-74
2021/08/04 09:17:01;;;;;;;1.77;1.47;;;;;;;21.24;53.82;96398.63;3574830;39;20937;-71
2021/08/04 09:19:30;;;;;;;4.00;2.13;;;;;;;20.81;52.71;96380.44;3581262;39;20470;-71
2021/08/04 09:22:09;;;;;;;2.60;1.90;;;;;;;21.99;51.80;96392.53;3581248;39;20780;-72
2021/08/04 09:24:57;;;;;;;5.43;1.40;;;;;;;21.31;53.05;96392.44;3579508;39;20635;-71
2021/08/04 09:27:43;;;;;;;2.33;1.63;;;;;;;21.31;53.94;96388.94;3563523;40;20786;-72
2021/08/04 09:30:14;;;;;;;4.10;2.03;;;;;;;22.18;50.76;96385.84;3555068;40;20949;-71
2021/08/04 09:32:43;;;;;;;3.00;1.77;;;;;;;19.52;54.82;96384.91;3559688;40;20459;-75
2021/08/04 09:35:15;;;;;;;3.90;2.20;;;;;;;18.37;57.65;96391.78;3559017;40;20874;-73
2021/08/04 09:37:44;;;;;;;3.87;1.87;;;;;;;19.26;55.30;96386.88;3559935;40;20554;-71
2021/08/04 09:40:16;;;;;;;8.33;2.03;;;;;;;18.50;58.30;96389.50;3558642;40;20536;-72
2021/08/04 09:42:48;;;;;;;20.03;2.57;;;;;;;18.99;56.59;96386.16;3560074;40;20830;-72
2021/08/04 09:45:17;;;;;;;5.03;1.80;;;;;;;18.28;57.28;96390.88;3558264;40;20446;-70
2021/08/04 09:47:58;;;;;;;5.73;1.80;;;;;;;19.11;54.19;96382.22;3563936;40;20476;-73
2021/08/04 09:50:27;;;;;;;5.30;2.00;;;;;;;19.44;55.04;96376.91;3558754;40;20477;-73
2021/08/04 09:52:56;;;;;;;4.80;2.00;;;;;;;20.31;54.61;96377.13;3559106;40;20509;-73
2021/08/04 09:55:25;;;;;;;9.27;2.00;;;;;;;20.01;53.76;96378.72;3560649;40;20742;-74
2021/08/04 09:57:55;;;;;;;8.87;2.10;;;;;;;18.77;57.75;96371.69;3560964;40;20760;-74
2021/08/04 10:00:23;;;;;;;5.83;2.00;;;;;;;19.22;55.21;96377.59;3562692;40;20461;-74
2021/08/04 10:02:52;;;;;;;2.37;1.70;;;;;;;19.61;54.24;96374.28;3564007;40;20678;-74
2021/08/04 10:05:24;;;;;;;15.53;2.57;;;;;;;19.12;54.57;96375.91;3557679;40;20478;-74
2021/08/04 10:08:06;;;;;;;4.20;2.00;;;;;;;18.45;57.99;96370.59;3559186;40;20918;-73
2021/08/04 10:10:36;;;;;;;5.10;1.90;;;;;;;17.43;59.42;96369.47;3559467;40;21250;-73
2021/08/04 10:13:05;;;;;;;7.60;2.17;;;;;;;18.04;58.04;96377.53;3560392;40;20919;-73
2021/08/04 10:15:41;;;;;;;11.40;2.50;;;;;;;18.41;59.28;96368.44;3562201;40;20928;-75
2021/08/04 10:18:12;;;;;;;7.70;1.90;;;;;;;18.20;58.53;96366.19;3563554;40;20535;-74
2021/08/04 10:20:42;;;;;;;5.40;2.13;;;;;;;18.25;59.45;96361.22;3560119;40;20474;-73
2021/08/04 10:23:14;;;;;;;6.00;1.90;;;;;;;18.07;62.83;96353.34;3560765;40;20826;-74
2021/08/04 10:25:42;;;;;;;2.83;2.20;;;;;;;19.22;59.01;96349.22;3561507;40;20437;-73
2021/08/04 10:28:12;;;;;;;9.10;2.20;;;;;;;19.72;58.36;96355.38;3582198;39;20547;-73
2021/08/04 10:30:42;;;;;;;7.53;1.97;;;;;;;19.98;58.42;96354.31;3581501;39;20462;-74
2021/08/04 10:33:10;;;;;;;8.50;2.27;;;;;;;19.75;57.68;96358.50;3580130;39;20962;-73
2021/08/04 10:35:44;;;;;;;4.53;1.73;;;;;;;20.09;57.31;96349.47;3586407;39;20905;-74
2021/08/04 10:38:19;;;;;;;5.30;2.10;;;;;;;20.27;57.87;96345.75;3583414;39;20441;-75
2021/08/04 10:41:12;;;;;;;13.43;3.53;;;;;;;20.80;55.13;96333.56;3574578;39;20488;-74
2021/08/04 10:43:43;;;;;;;16.57;2.63;;;;;;;21.70;53.40;96332.03;3579699;39;20914;-76
2021/08/04 10:46:35;;;;;;;3.87;1.83;;;;;;;21.80;53.01;96332.59;3581372;39;20478;-76
2021/08/04 10:49:25;;;;;;;7.37;1.63;;;;;;;21.71;50.86;96328.34;3575443;39;20457;-76
2021/08/04 10:52:15;;;;;;;3.13;1.50;;;;;;;21.61;52.99;96315.28;3582727;39;20880;-74
2021/08/04 10:55:05;;;;;;;5.03;1.67;;;;;;;22.60;50.50;96320.34;3579877;39;20581;-75
2021/08/04 10:57:35;;;;;;;3.17;2.40;;;;;;;22.62;49.20;96321.00;3581532;39;20464;-74
2021/08/04 11:00:22;;;;;;;4.77;1.93;;;;;;;21.89;49.90;96328.84;3582800;39;20833;-71
2021/08/04 11:02:50;;;;;;;5.70;1.80;;;;;;;20.84;52.69;96332.19;3581978;39;20721;-71
2021/08/04 11:05:18;;;;;;;9.67;2.30;;;;;;;21.21;54.50;96332.41;3582672;39;20452;-71
2021/08/04 11:08:19;;;;;;;9.27;2.60;;;;;;;22.41;51.37;96327.09;3579670;39;20769;-72
2021/08/04 11:10:47;;;;;;;3.53;1.63;;;;;;;22.70;48.82;96320.88;3577111;39;20456;-72
2021/08/04 11:13:49;;;;;;;5.40;1.90;;;;;;;22.84;50.68;96323.69;3582203;39;20582;-73
2021/08/04 11:16:26;;;;;;;15.53;2.70;;;;;;;22.41;50.81;96319.09;3571409;40;20724;-72
2021/08/04 11:19:03;;;;;;;47.27;27.80;;;;;;;21.77;52.14;96316.16;3579072;39;20469;-71
2021/08/04 11:21:31;;;;;;;5.07;2.60;;;;;;;21.43;51.31;96312.97;3578886;39;20485;-73
2021/08/04 11:24:01;;;;;;;5.73;2.13;;;;;;;20.70;53.86;96306.34;3577675;39;20906;-70
2021/08/04 11:26:31;;;;;;;5.27;2.20;;;;;;;19.30;59.08;96311.22;3582719;39;20468;-70
2021/08/04 11:29:00;;;;;;;4.03;1.80;;;;;;;21.43;53.21;96304.97;3581097;39;20560;-71
2021/08/04 11:31:28;;;;;;;6.83;2.50;;;;;;;21.49;52.54;96303.44;3577805;39;20430;-72
2021/08/04 11:34:01;;;;;;;3.83;2.00;;;;;;;21.10;54.35;96305.22;3576822;39;20915;-73
2021/08/04 11:36:31;;;;;;;3.27;2.10;;;;;;;22.35;49.45;96311.84;3580908;39;20541;-73
2021/08/04 11:39:05;;;;;;;7.47;2.23;;;;;;;20.71;53.10;96311.47;3580234;39;20874;-73
2021/08/04 11:41:42;;;;;;;9.03;2.57;;;;;;;22.00;52.36;96316.06;3579135;39;21067;-70
2021/08/04 11:44:25;;;;;;;4.77;1.97;;;;;;;22.29;52.85;96316.06;3576451;39;20707;-72
2021/08/04 11:46:55;;;;;;;4.63;1.90;;;;;;;22.33;51.63;96313.88;3578520;39;20441;-73